Weather History for KGTB - November, 2012

Change the Weather History Date:

Tuesday, November 13, 2012

  Actual Average Record
Temperature  
Mean Temperature 34 °F -  
Max Temperature 42 °F 42 °F 64 °F (2005)
Min Temperature 25 °F 27 °F 12 °F (1996)
Degree Days  
Heating Degree Days 31    
Moisture  
Dew Point 35 °F    
Average Humidity 89    
Maximum Humidity 100    
Minimum Humidity 52    
Precipitation  
Precipitation 0.47 in - - ()
Sea Level Pressure  
Sea Level Pressure 30.25 in    
Wind  
Wind Speed 12 mph (WSW)    
Max Wind Speed 18 mph    
Max Gust Speed 30 mph    
Visibility 9 miles    
Events Rain , Snow    
Averages and records for this station are not official NWS values.
T = Trace of Precipitation, MM = Missing Value Source: NWS Daily Summary

Daily Weather History Graph

Daily Weather History Graph

Search for Another Location

Airport or City:

Trip Planner

Search our weather history database for the weather conditions in past years. The results will help you decide how hot, cold, wet, or windy it might be!

Date:

Astronomy

Nov. 13, 2012 Rise Set
Actual Time 6:55 AM EST 4:37 PM EST
Civil Twilight 6:24 AM EST 5:09 PM EST
Nautical Twilight 5:50 AM EST 5:43 PM EST
Astronomical Twilight 5:15 AM EST 6:17 PM EST
Moon 6:31 AM EST (11/13) 4:28 PM EST (11/13)
Length of Visible Light 10h 44m
Length of Day
9h 42m
Waning Crescent, 0% of the Moon is Illuminated
Nov 13
Waning Crescent
Nov 13
New
Nov 20
First Quarter
Nov 28
Full
Dec 6
Last Quarter

Hourly Weather History & Observations

Time (EST) Temp. Windchill Dew Point Humidity Pressure Visibility Wind Dir Wind Speed Gust Speed Precip Events Conditions
12:03 AM 42.8 °F 35.1 °F 42.8 °F 100% 30.15 in 8.0 mi West 16.1 mph 24.2 mph N/A Rain Rain
12:04 AM 42.8 °F 35.4 °F 42.8 °F 100% 30.15 in 8.0 mi West 15.0 mph 24.2 mph N/A Rain Rain
12:05 AM 42.8 °F 36.2 °F 42.8 °F 100% 30.15 in 8.0 mi West 12.7 mph 24.2 mph N/A Rain Rain
12:12 AM 42.8 °F 35.8 °F 42.8 °F 100% 30.15 in 9.0 mi West 13.8 mph 26.5 mph N/A Rain Rain
12:13 AM 42.8 °F 35.8 °F 42.8 °F 100% 30.15 in 10.0 mi West 13.8 mph 26.5 mph N/A Rain Rain
12:14 AM 42.8 °F 35.8 °F 42.8 °F 100% 30.15 in 10.0 mi West 13.8 mph 26.5 mph N/A Rain Rain
12:20 AM 42.8 °F 36.6 °F 42.8 °F 100% 30.16 in 9.0 mi West 11.5 mph 21.9 mph N/A Rain Rain
12:22 AM 42.8 °F 35.8 °F 42.8 °F 100% 30.16 in 9.0 mi West 13.8 mph 19.6 mph N/A Rain Rain
12:27 AM 42.8 °F 35.1 °F 42.8 °F 100% 30.16 in 9.0 mi West 16.1 mph 27.6 mph N/A Rain Rain
12:33 AM 42.8 °F 36.2 °F 41.0 °F 93% 30.16 in 10.0 mi West 12.7 mph 27.6 mph N/A Rain Rain
12:39 AM 42.8 °F 35.8 °F 41.0 °F 93% 30.16 in 10.0 mi West 13.8 mph 20.7 mph N/A Rain Light Rain
12:41 AM 42.8 °F 36.2 °F 41.0 °F 93% 30.16 in 10.0 mi West 12.7 mph 20.7 mph N/A Rain Light Rain
12:42 AM 42.8 °F 36.2 °F 41.0 °F 93% 30.15 in 10.0 mi WSW 12.7 mph 18.4 mph N/A Rain Light Rain
12:44 AM 42.8 °F 36.6 °F 41.0 °F 93% 30.16 in 10.0 mi West 11.5 mph 19.6 mph N/A Rain Rain
12:46 AM 42.8 °F 36.2 °F 41.0 °F 93% 30.16 in 9.0 mi WSW 12.7 mph 20.7 mph N/A Rain Rain
12:55 AM 41.5 °F 34.6 °F 41.4 °F 99% 30.17 in 10.0 mi WSW 12.7 mph 20.7 mph 0.14 in Rain Light Rain
1:18 AM 41.0 °F 33.5 °F 41.0 °F 100% 30.16 in 10.0 mi WSW 13.8 mph 21.9 mph N/A Rain Light Rain
1:33 AM 41.0 °F 35.2 °F 41.0 °F 100% 30.17 in 7.0 mi WSW 9.2 mph - N/A Rain Rain
1:34 AM 41.0 °F 35.2 °F 41.0 °F 100% 30.17 in 7.0 mi WSW 9.2 mph - N/A Rain Rain
1:35 AM 41.0 °F 35.2 °F 41.0 °F 100% 30.17 in 7.0 mi WSW 9.2 mph - N/A Rain Rain
1:51 AM 41.0 °F 33.1 °F 41.0 °F 100% 30.18 in 6.0 mi WSW 15.0 mph 27.6 mph N/A Rain Rain
1:55 AM 41.0 °F 33.5 °F 40.8 °F 99% 30.19 in 7.0 mi West 13.8 mph 27.6 mph 0.15 in Rain Rain
1:58 AM 41.0 °F 32.8 °F 41.0 °F 100% 30.19 in 8.0 mi West 16.1 mph 27.6 mph N/A Rain Rain
2:06 AM 41.0 °F 34.3 °F 39.2 °F 93% 30.19 in 9.0 mi West 11.5 mph 28.8 mph N/A Rain Rain
2:10 AM 39.2 °F 31.6 °F 39.2 °F 100% 30.20 in 8.0 mi West 12.7 mph 28.8 mph N/A Rain Rain
2:11 AM 39.2 °F 32.0 °F 39.2 °F 100% 30.20 in 8.0 mi West 11.5 mph 28.8 mph N/A Rain Rain
2:12 AM 39.2 °F 31.6 °F 39.2 °F 100% 30.20 in 8.0 mi West 12.7 mph 28.8 mph N/A Rain Rain
2:14 AM 39.2 °F 32.5 °F 39.2 °F 100% 30.20 in 8.0 mi West 10.4 mph 28.8 mph N/A Rain Rain
2:17 AM 39.2 °F 29.8 °F 39.2 °F 100% 30.20 in 8.0 mi West 18.4 mph 23.0 mph N/A Rain Rain
2:23 AM 39.2 °F 30.2 °F 39.2 °F 100% 30.21 in 6.0 mi West 17.3 mph 29.9 mph N/A Rain Heavy Rain
2:25 AM 39.2 °F 30.8 °F 39.2 °F 100% 30.20 in 6.0 mi West 15.0 mph 29.9 mph N/A Rain Heavy Rain
2:26 AM 39.2 °F 31.2 °F 37.4 °F 93% 30.20 in 6.0 mi West 13.8 mph 29.9 mph N/A Rain Rain
2:29 AM 39.2 °F 32.0 °F 37.4 °F 93% 30.20 in 6.0 mi WSW 11.5 mph 29.9 mph N/A Rain Light Rain
2:30 AM 39.2 °F 32.0 °F 37.4 °F 93% 30.19 in 7.0 mi WSW 11.5 mph 29.9 mph N/A Rain Light Rain
2:37 AM 39.2 °F 32.5 °F 37.4 °F 93% 30.19 in 10.0 mi SW 10.4 mph 21.9 mph N/A Rain Light Rain
2:41 AM 39.2 °F 32.5 °F 37.4 °F 93% 30.18 in 10.0 mi SW 10.4 mph - N/A Rain Light Rain
2:43 AM 39.2 °F 32.5 °F 37.4 °F 93% 30.18 in 10.0 mi SW 10.4 mph 16.1 mph N/A   Scattered Clouds
2:55 AM 38.8 °F 32.6 °F 37.4 °F 95% 30.18 in 10.0 mi SW 9.2 mph - 0.10 in   Scattered Clouds
2:56 AM 39.2 °F 33.0 °F 37.4 °F 93% 30.18 in 10.0 mi SW 9.2 mph - N/A Rain Light Rain
3:04 AM 39.2 °F 32.0 °F 37.4 °F 93% 30.20 in 10.0 mi SW 11.5 mph 18.4 mph N/A Rain Light Rain
3:13 AM 39.2 °F 30.5 °F 39.2 °F 100% 30.20 in 7.0 mi WSW 16.1 mph 26.5 mph N/A Rain Light Rain
3:16 AM 39.2 °F 30.5 °F 39.2 °F 100% 30.20 in 6.0 mi WSW 16.1 mph 26.5 mph N/A Rain Rain
3:17 AM 39.2 °F 30.5 °F 39.2 °F 100% 30.21 in 6.0 mi WSW 16.1 mph 26.5 mph N/A Rain Light Rain
3:20 AM 39.2 °F 32.0 °F 39.2 °F 100% 30.22 in 7.0 mi WSW 11.5 mph 24.2 mph N/A Rain Light Rain
3:23 AM 39.2 °F 33.0 °F 39.2 °F 100% 30.19 in 9.0 mi WSW 9.2 mph 23.0 mph N/A Rain Light Rain
3:25 AM 39.2 °F 33.6 °F 39.2 °F 100% 30.18 in 9.0 mi West 8.1 mph 23.0 mph N/A Rain Rain
3:26 AM 39.2 °F 32.0 °F 39.2 °F 100% 30.18 in 9.0 mi WSW 11.5 mph - N/A Rain Rain
3:28 AM 39.2 °F 32.5 °F 39.2 °F 100% 30.17 in 9.0 mi WSW 10.4 mph - N/A Rain Rain
3:29 AM 39.2 °F 33.0 °F 39.2 °F 100% 30.17 in 9.0 mi WSW 9.2 mph - N/A Rain Light Rain
3:31 AM 39.2 °F 33.0 °F 39.2 °F 100% 30.17 in 9.0 mi WSW 9.2 mph - N/A Rain Light Rain
3:33 AM 39.2 °F 33.0 °F 39.2 °F 100% 30.18 in 9.0 mi WSW 9.2 mph - N/A Rain Light Rain
3:34 AM 39.2 °F 32.5 °F 39.2 °F 100% 30.19 in 10.0 mi WSW 10.4 mph - N/A Rain Light Rain
3:35 AM 39.2 °F 32.5 °F 39.2 °F 100% 30.19 in 10.0 mi WSW 10.4 mph - N/A Rain Light Rain
3:36 AM 39.2 °F 32.0 °F 39.2 °F 100% 30.19 in 10.0 mi WSW 11.5 mph - N/A Rain Light Rain
3:45 AM 39.2 °F 33.6 °F 39.2 °F 100% 30.20 in 10.0 mi WSW 8.1 mph - N/A   Light Drizzle
3:55 AM 38.8 °F 32.6 °F 38.7 °F 99% 30.21 in 7.0 mi WSW 9.2 mph - 0.08 in Rain Light Rain
3:58 AM 39.2 °F 33.0 °F 39.2 °F 100% 30.19 in 7.0 mi WSW 9.2 mph - N/A Rain Light Rain
4:05 AM 39.2 °F 33.0 °F 37.4 °F 93% 30.20 in 10.0 mi WSW 9.2 mph - N/A   Light Drizzle
4:06 AM 39.2 °F 32.5 °F 37.4 °F 93% 30.19 in 10.0 mi WSW 10.4 mph - N/A   Light Drizzle
4:14 AM 39.2 °F 33.6 °F 37.4 °F 93% 30.22 in 10.0 mi WSW 8.1 mph - N/A   Overcast
4:16 AM 39.2 °F 35.0 °F 37.4 °F 93% 30.20 in 10.0 mi WSW 5.8 mph - N/A   Overcast
4:18 AM 39.2 °F 35.9 °F 37.4 °F 93% 30.20 in 10.0 mi WSW 4.6 mph - N/A   Overcast
4:46 AM 37.4 °F 33.8 °F 37.4 °F 100% 30.22 in 10.0 mi WSW 4.6 mph - N/A   Overcast
4:55 AM 37.9 °F 35.5 °F 37.8 °F 99% 30.23 in 10.0 mi West 3.5 mph - 0.00 in   Overcast
5:55 AM 36.9 °F 31.4 °F 32.7 °F 85% 30.24 in 10.0 mi West 6.9 mph - N/A   Overcast
6:55 AM 36.7 °F 29.9 °F 29.7 °F 76% 30.27 in 10.0 mi West 9.2 mph - N/A   Overcast
7:55 AM 36.1 °F 32.3 °F 26.8 °F 69% 30.30 in 10.0 mi West 4.6 mph - N/A   Overcast
8:55 AM 37.2 °F 31.2 °F 25.9 °F 64% 30.33 in 10.0 mi WNW 8.1 mph - N/A   Mostly Cloudy
9:14 AM 37.4 °F 28.2 °F 26.6 °F 65% 30.34 in 10.0 mi West 16.1 mph 21.9 mph N/A Rain Light Rain
9:30 AM 37.4 °F 30.3 °F 26.6 °F 65% 30.34 in 10.0 mi West 10.4 mph - N/A   Mostly Cloudy
9:35 AM 37.4 °F 31.4 °F 26.6 °F 65% 30.34 in 10.0 mi WNW 8.1 mph - N/A   Mostly Cloudy
9:36 AM 37.4 °F 32.1 °F 26.6 °F 65% 30.34 in 10.0 mi Variable 6.9 mph - N/A   Mostly Cloudy
9:48 AM 37.4 °F 30.3 °F 28.4 °F 70% 30.35 in 10.0 mi West 10.4 mph - N/A Rain Light Rain
9:55 AM 36.0 °F 28.5 °F 28.4 °F 74% 30.35 in 10.0 mi WNW 10.4 mph - 0.00 in Snow Light Snow
10:11 AM 35.6 °F 28.6 °F 28.4 °F 75% 30.36 in 10.0 mi West 9.2 mph 17.3 mph N/A Snow Light Snow
10:31 AM 35.6 °F 30.7 °F 28.4 °F 75% 30.36 in 10.0 mi West 5.8 mph - N/A   Overcast
10:47 AM 35.6 °F 31.7 °F 28.4 °F 75% 30.37 in 10.0 mi Variable 4.6 mph - N/A Rain Light Rain
10:55 AM 36.1 °F 29.9 °F 28.8 °F 75% 30.37 in 10.0 mi WSW 8.1 mph - 0.00 in Rain Light Rain
11:04 AM 35.6 °F 30.7 °F 28.4 °F 75% 30.37 in 10.0 mi WSW 5.8 mph - N/A   Overcast
11:26 AM 37.4 °F 30.3 °F 28.4 °F 70% 30.37 in 10.0 mi West 10.4 mph - N/A Rain Light Rain
11:44 AM 37.4 °F 30.8 °F 26.6 °F 65% 30.36 in 10.0 mi WNW 9.2 mph - N/A   Overcast
11:55 AM 36.7 °F 32.0 °F 26.4 °F 66% 30.36 in 10.0 mi West 5.8 mph - 0.00 in   Overcast
12:55 PM 38.3 °F 32.5 °F 23.5 °F 55% 30.35 in 10.0 mi West 8.1 mph - N/A   Overcast
1:55 PM 38.8 °F 32.6 °F 23.4 °F 54% 30.36 in 10.0 mi West 9.2 mph - N/A   Overcast
2:55 PM 38.8 °F 33.8 °F 22.5 °F 52% 30.37 in 10.0 mi Variable 6.9 mph - N/A   Overcast
3:55 PM 38.1 °F 33.7 °F 23.7 °F 56% 30.39 in 10.0 mi WNW 5.8 mph - N/A   Overcast
4:55 PM 35.2 °F - 23.2 °F 62% 30.41 in 10.0 mi Calm Calm - N/A   Clear
5:55 PM 33.6 °F 30.6 °F 23.5 °F 67% 30.44 in 10.0 mi WNW 3.5 mph - N/A   Clear
6:55 PM 32.7 °F 29.6 °F 23.9 °F 70% 30.47 in 10.0 mi West 3.5 mph - N/A   Clear
7:55 PM 32.5 °F - 23.5 °F 69% 30.48 in 10.0 mi Calm Calm - N/A   Clear
8:55 PM 31.1 °F 27.7 °F 24.1 °F 75% 30.50 in 10.0 mi West 3.5 mph - N/A   Clear
9:55 PM 30.0 °F - 24.3 °F 79% 30.51 in 10.0 mi Calm Calm - N/A   Clear
10:55 PM 26.2 °F 22.1 °F 23.9 °F 91% 30.52 in 10.0 mi SSW 3.5 mph - N/A   Clear
11:55 PM 25.7 °F - 24.1 °F 94% 30.54 in 10.0 mi Calm Calm - N/A   Clear